5M9

Marion-Crittenden County Airport

Marion, Kentucky, USA
METAR K5M9 190835Z AUTO 00000KT 10SM CLR 04/02 A3031 RMK AO2 T00410015
Observed Flight Rules
Oct-19 @ 08:35 UTC (30 minutes ago) Visual Flight Rules
Visibility Clouds
10 miles
  • Clear skies
Temperatures Readings
Current 4°C / 39°F
Dewpoint 2°C / 36°F
Humidity 87%
Altimeter 30.31" Hg
Pressure 1026 hPa
Elevation 199
METAR K5M9 190835Z AUTO 00000KT 10SM CLR 04/02 A3031 RMK AO2 T00410015
Observed Flight Rules
Oct-19 @ 08:35 UTC
(30 minutes ago)
VFR
Clouds
  • Clear skies
Temperature Dewpoint
4°C / 39°F 2°C / 36°F
Humidity Altimeter Pressure
87% 30.31" Hg 1026 hPa